createdAt,value
2023-04-01T00:01:07.013Z,8.34
2023-04-01T00:04:10.097Z,8.38
2023-04-01T00:07:12.741Z,8.34
2023-04-01T00:10:16.089Z,8.33
2023-04-01T00:13:19.249Z,8.34
2023-04-01T00:16:22.763Z,8.35
2023-04-01T00:19:25.613Z,8.30
2023-04-01T00:22:28.753Z,8.35
2023-04-01T00:25:31.770Z,8.33
2023-04-01T00:28:35.839Z,8.32
2023-04-01T00:31:38.767Z,8.31
2023-04-01T00:34:42.367Z,8.30
2023-04-01T00:37:44.990Z,8.32
2023-04-01T00:40:48.302Z,8.28
2023-04-01T00:43:52.448Z,8.29
2023-04-01T00:46:55.269Z,8.26
2023-04-01T00:49:58.051Z,8.24
2023-04-01T00:53:01.725Z,8.27
2023-04-01T00:56:11.284Z,8.23
2023-04-01T00:59:31.530Z,8.17
2023-04-01T01:02:34.808Z,8.21
2023-04-01T01:06:05.312Z,8.14
2023-04-01T01:09:42.977Z,8.15
2023-04-01T01:13:16.225Z,8.08
2023-04-01T01:16:29.303Z,8.04
2023-04-01T01:20:22.987Z,8.03
2023-04-01T01:23:42.751Z,7.98
2023-04-01T01:26:53.556Z,7.92
2023-04-01T01:30:22.413Z,7.86
2023-04-01T01:33:31.636Z,7.85
2023-04-01T01:36:38.267Z,7.86
2023-04-01T01:39:42.998Z,7.90
2023-04-01T01:42:49.927Z,7.89
2023-04-01T01:45:56.542Z,7.87
2023-04-01T01:49:00.948Z,7.84
2023-04-01T01:52:04.854Z,7.82
2023-04-01T01:55:26.382Z,7.76
2023-04-01T01:58:57.525Z,7.75
2023-04-01T02:02:00.756Z,7.77
2023-04-01T02:05:04.496Z,7.74
2023-04-01T02:08:19.797Z,7.76
2023-04-01T02:11:31.346Z,7.68
2023-04-01T02:14:43.440Z,7.64
2023-04-01T02:17:47.572Z,7.62
2023-04-01T02:20:50.979Z,7.58
2023-04-01T02:23:54.919Z,7.54
2023-04-01T02:26:57.660Z,7.54
2023-04-01T02:30:00.670Z,7.50
2023-04-01T02:33:04.753Z,7.48
2023-04-01T02:36:12.513Z,7.48
2023-04-01T02:39:16.123Z,7.47
2023-04-01T02:42:18.853Z,7.40
2023-04-01T02:45:24.560Z,7.43
2023-04-01T02:48:27.371Z,7.45
2023-04-01T02:51:32.136Z,7.49
2023-04-01T02:54:35.415Z,7.42
2023-04-01T02:57:38.192Z,7.39
2023-04-01T03:00:41.112Z,7.44
2023-04-01T03:03:44.011Z,7.42
2023-04-01T03:06:46.753Z,7.52
2023-04-01T03:09:49.601Z,7.54
2023-04-01T03:12:52.444Z,7.53
2023-04-01T03:15:55.471Z,7.55
2023-04-01T03:19:00.171Z,7.52
2023-04-01T03:22:03.420Z,7.50
2023-04-01T03:25:07.056Z,7.47
2023-04-01T03:28:09.903Z,7.42
2023-04-01T03:31:13.108Z,7.41
2023-04-01T03:34:16.284Z,7.31
2023-04-01T03:37:19.085Z,7.16
2023-04-01T03:40:22.794Z,7.10
2023-04-01T03:43:25.681Z,7.10
2023-04-01T03:46:28.782Z,7.23
2023-04-01T03:49:33.321Z,7.27
2023-04-01T03:52:36.094Z,7.28
2023-04-01T03:55:39.003Z,7.28
2023-04-01T03:58:41.721Z,7.28
2023-04-01T04:01:44.470Z,7.28
2023-04-01T04:04:47.724Z,7.24
2023-04-01T04:07:51.081Z,7.31
2023-04-01T04:10:58.216Z,7.25
2023-04-01T04:14:01.428Z,7.25
2023-04-01T04:17:04.116Z,7.30
2023-04-01T04:20:07.625Z,7.25
2023-04-01T04:23:10.447Z,7.19
2023-04-01T04:26:15.617Z,7.18
2023-04-01T04:29:18.386Z,7.12
2023-04-01T04:32:23.060Z,7.08
2023-04-01T04:35:26.161Z,7.11
2023-04-01T04:38:29.149Z,7.15
2023-04-01T04:41:31.962Z,7.14
2023-04-01T04:44:34.767Z,7.13
2023-04-01T04:47:37.479Z,7.24
2023-04-01T04:50:41.752Z,7.28
2023-04-01T04:53:45.708Z,7.32
2023-04-01T04:56:48.613Z,7.49
2023-04-01T04:59:51.473Z,7.42
2023-04-01T05:02:54.424Z,7.53
2023-04-01T05:05:57.399Z,7.53
2023-04-01T05:09:00.185Z,7.61
2023-04-01T05:12:03.326Z,7.71
2023-04-01T05:15:08.885Z,7.92
2023-04-01T05:18:11.648Z,8.00
2023-04-01T05:21:15.947Z,8.10
2023-04-01T05:24:18.661Z,8.21
2023-04-01T05:27:21.715Z,8.32
2023-04-01T05:30:24.438Z,8.36
2023-04-01T05:33:27.390Z,8.46
2023-04-01T05:36:30.205Z,8.52
2023-04-01T05:39:32.974Z,8.60
2023-04-01T05:42:38.254Z,8.69
2023-04-01T05:45:41.430Z,8.76
2023-04-01T05:48:44.428Z,8.84
2023-04-01T05:51:47.339Z,8.92
2023-04-01T05:54:50.238Z,9.00
2023-04-01T05:57:53.698Z,9.07
2023-04-01T06:01:09.513Z,9.18
2023-04-01T06:04:17.388Z,9.25
2023-04-01T06:07:20.178Z,9.33
2023-04-01T06:10:34.203Z,9.41
2023-04-01T06:13:43.469Z,9.47
2023-04-01T06:17:02.966Z,9.52
2023-04-01T06:20:25.521Z,9.62
2023-04-01T06:23:49.665Z,9.71
2023-04-01T06:27:30.910Z,9.79
2023-04-01T06:30:42.322Z,9.83
2023-04-01T06:33:47.824Z,9.93
2023-04-01T06:37:12.658Z,10.01
2023-04-01T06:40:35.676Z,10.16
2023-04-01T06:44:01.270Z,10.22
2023-04-01T06:47:04.203Z,10.29
2023-04-01T06:50:36.928Z,10.37
2023-04-01T06:53:55.385Z,10.46
2023-04-01T06:57:06.967Z,10.55
2023-04-01T07:00:16.020Z,10.64
2023-04-01T07:03:27.947Z,10.72
2023-04-01T07:06:37.947Z,10.81
2023-04-01T07:09:43.543Z,10.84
2023-04-01T07:12:57.871Z,10.83
2023-04-01T07:16:20.422Z,10.92
2023-04-01T07:19:28.320Z,11.02
2023-04-01T07:22:37.284Z,11.08
2023-04-01T07:25:48.084Z,11.17
2023-04-01T07:28:53.207Z,11.27
2023-04-01T07:32:14.822Z,11.38
2023-04-01T07:35:57.096Z,11.52
2023-04-01T07:39:36.752Z,11.56
2023-04-01T07:43:07.292Z,11.84
2023-04-01T07:46:16.295Z,12.05
2023-04-01T07:49:39.060Z,12.16
2023-04-01T07:52:50.684Z,12.25
2023-04-01T07:56:12.742Z,12.19
2023-04-01T07:59:29.190Z,12.29
2023-04-01T08:02:35.142Z,12.44
2023-04-01T08:06:02.158Z,12.78
2023-04-01T08:09:35.958Z,12.91
2023-04-01T08:13:07.538Z,13.09
2023-04-01T08:16:27.343Z,13.17
2023-04-01T08:19:50.750Z,13.28
2023-04-01T08:23:09.699Z,13.70
2023-04-01T08:26:27.489Z,13.45
2023-04-01T08:30:01.929Z,13.72
2023-04-01T08:33:15.229Z,13.66
2023-04-01T08:36:26.083Z,13.88
2023-04-01T08:39:43.947Z,14.36
2023-04-01T08:43:14.273Z,13.89
2023-04-01T08:46:53.720Z,13.62
2023-04-01T08:50:26.498Z,13.66
2023-04-01T08:53:44.032Z,13.62
2023-04-01T08:57:05.607Z,13.54
2023-04-01T09:00:11.695Z,13.54
2023-04-01T09:03:33.426Z,13.45
2023-04-01T09:07:02.704Z,13.30
2023-04-01T09:10:17.278Z,13.34
2023-04-01T09:13:35.312Z,13.70
2023-04-01T09:16:59.882Z,13.80
2023-04-01T09:20:19.210Z,14.12
2023-04-01T09:23:56.268Z,14.29
2023-04-01T09:27:11.264Z,14.57
2023-04-01T09:30:41.894Z,14.33
2023-04-01T09:34:04.314Z,14.44
2023-04-01T09:37:46.201Z,14.64
2023-04-01T09:40:59.398Z,14.26
2023-04-01T09:44:05.792Z,14.00
2023-04-01T09:47:31.742Z,14.25
2023-04-01T09:50:54.922Z,14.46
2023-04-01T09:54:03.735Z,14.27
2023-04-01T09:57:41.775Z,14.42
2023-04-01T10:00:57.362Z,14.48
2023-04-01T10:04:27.506Z,14.55
2023-04-01T10:07:59.054Z,13.99
2023-04-01T10:11:40.561Z,13.90
2023-04-01T10:14:58.685Z,14.01
2023-04-01T10:18:20.150Z,14.34
2023-04-01T10:21:53.236Z,14.55
2023-04-01T10:25:32.281Z,14.80
2023-04-01T10:28:54.896Z,14.66
2023-04-01T10:32:16.526Z,14.52
2023-04-01T10:35:44.223Z,14.68
2023-04-01T10:38:57.938Z,14.82
2023-04-01T10:42:38.804Z,14.77
2023-04-01T10:45:59.090Z,14.79
2023-04-01T10:49:28.160Z,14.64
2023-04-01T10:53:08.764Z,14.71
2023-04-01T10:56:23.557Z,15.36
2023-04-01T10:59:33.925Z,15.36
2023-04-01T11:03:14.556Z,14.76
2023-04-01T11:06:29.716Z,15.07
2023-04-01T11:10:09.938Z,14.94
2023-04-01T11:13:31.455Z,15.03
2023-04-01T11:16:40.325Z,14.94
2023-04-01T11:20:05.105Z,15.09
2023-04-01T11:23:24.939Z,14.99
2023-04-01T11:26:54.692Z,15.33
2023-04-01T11:30:09.048Z,15.63
2023-04-01T11:33:11.941Z,15.09
2023-04-01T11:37:00.800Z,14.78
2023-04-01T11:40:15.814Z,14.43
2023-04-01T11:43:34.431Z,14.33
2023-04-01T11:46:54.831Z,14.59
2023-04-01T11:50:04.217Z,15.49
2023-04-01T11:53:21.313Z,16.03
2023-04-01T11:56:51.510Z,16.60
2023-04-01T12:00:02.147Z,16.51
2023-04-01T12:03:43.128Z,16.14
2023-04-01T12:07:15.673Z,15.69
2023-04-01T12:10:29.901Z,15.67
2023-04-01T12:13:51.463Z,15.96
2023-04-01T12:17:31.661Z,16.67
2023-04-01T12:20:54.749Z,16.34
2023-04-01T12:24:28.368Z,15.95
2023-04-01T12:28:12.150Z,16.25
2023-04-01T12:31:47.394Z,17.72
2023-04-01T12:35:40.978Z,18.34
2023-04-01T12:38:50.758Z,18.74
2023-04-01T12:42:06.770Z,18.52
2023-04-01T12:45:32.944Z,17.14
2023-04-01T12:48:55.006Z,16.50
2023-04-01T12:52:11.672Z,17.14
2023-04-01T12:55:35.205Z,19.02
2023-04-01T12:58:56.850Z,18.32
2023-04-01T13:02:03.739Z,18.99
2023-04-01T13:05:34.610Z,18.32
2023-04-01T13:08:43.643Z,17.25
2023-04-01T13:12:17.739Z,16.75
2023-04-01T13:16:06.827Z,16.67
2023-04-01T13:19:15.251Z,16.17
2023-04-01T13:22:27.257Z,17.86
2023-04-01T13:25:47.963Z,18.78
2023-04-01T13:29:03.231Z,20.55
2023-04-01T13:32:11.119Z,20.75
2023-04-01T13:35:43.145Z,20.19
2023-04-01T13:39:02.349Z,20.49
2023-04-01T13:42:16.378Z,19.65
2023-04-01T13:45:47.487Z,18.62
2023-04-01T13:49:12.699Z,18.54
2023-04-01T13:52:40.147Z,19.47
2023-04-01T13:56:00.440Z,20.77
2023-04-01T13:59:18.259Z,20.07
2023-04-01T14:02:21.249Z,20.62
2023-04-01T14:05:42.787Z,20.72
2023-04-01T14:09:17.417Z,20.29
2023-04-01T14:12:48.871Z,19.89
2023-04-01T14:15:55.753Z,20.74
2023-04-01T14:19:13.407Z,20.21
2023-04-01T14:22:22.368Z,20.22
2023-04-01T14:25:33.487Z,19.98
2023-04-01T14:29:18.047Z,20.23
2023-04-01T14:32:40.838Z,21.04
2023-04-01T14:35:51.174Z,21.51
2023-04-01T14:39:49.539Z,20.94
2023-04-01T14:43:16.696Z,21.41
2023-04-01T14:46:59.603Z,21.74
2023-04-01T14:50:16.194Z,21.35
2023-04-01T14:53:26.361Z,22.26
2023-04-01T14:56:44.468Z,22.00
2023-04-01T15:00:01.436Z,21.02
2023-04-01T15:03:13.926Z,20.98
2023-04-01T15:06:28.366Z,21.12
2023-04-01T15:10:08.878Z,22.57
2023-04-01T15:13:24.695Z,22.56
2023-04-01T15:16:50.747Z,22.49
2023-04-01T15:20:03.568Z,23.03
2023-04-01T15:23:17.998Z,21.03
2023-04-01T15:26:29.555Z,21.30
2023-04-01T15:30:02.505Z,21.89
2023-04-01T15:33:42.969Z,21.40
2023-04-01T15:37:03.164Z,21.61
2023-04-01T15:40:23.374Z,20.97
2023-04-01T15:43:32.754Z,21.04
2023-04-01T15:46:49.295Z,21.46
2023-04-01T15:50:29.338Z,21.75
2023-04-01T15:53:56.966Z,21.08
2023-04-01T15:57:02.693Z,20.80
2023-04-01T16:00:25.313Z,21.09
2023-04-01T16:04:10.022Z,21.10
2023-04-01T16:07:37.073Z,21.49
2023-04-01T16:10:55.922Z,21.21
2023-04-01T16:14:36.457Z,20.56
2023-04-01T16:17:58.389Z,20.37
2023-04-01T16:21:19.933Z,18.70
2023-04-01T16:24:41.786Z,18.03
2023-04-01T16:27:50.258Z,17.12
2023-04-01T16:31:47.523Z,16.63
2023-04-01T16:35:03.314Z,16.22
2023-04-01T16:38:09.394Z,15.89
2023-04-01T16:41:18.160Z,15.62
2023-04-01T16:44:25.132Z,15.40
2023-04-01T16:47:33.691Z,15.25
2023-04-01T16:51:00.756Z,15.04
2023-04-01T16:54:14.968Z,14.95
2023-04-01T16:57:32.007Z,14.83
2023-04-01T17:00:42.129Z,14.53
2023-04-01T17:03:52.643Z,14.34
2023-04-01T17:07:17.529Z,14.07
2023-04-01T17:10:38.976Z,13.85
2023-04-01T17:13:51.859Z,13.62
2023-04-01T17:17:34.888Z,13.39
2023-04-01T17:20:59.948Z,13.23
2023-04-01T17:24:25.957Z,12.82
2023-04-01T17:28:01.620Z,12.54
2023-04-01T17:31:20.928Z,12.26
2023-04-01T17:34:57.335Z,11.86
2023-04-01T17:38:19.623Z,11.51
2023-04-01T17:42:14.068Z,11.22
2023-04-01T17:45:23.733Z,10.97
2023-04-01T17:48:51.707Z,10.77
2023-04-01T17:52:30.158Z,10.51
2023-04-01T17:55:51.624Z,10.33
2023-04-01T17:59:11.224Z,10.10
2023-04-01T18:02:26.831Z,9.87
2023-04-01T18:05:46.104Z,9.74
2023-04-01T18:09:02.141Z,9.58
2023-04-01T18:12:23.065Z,9.48
2023-04-01T18:16:01.652Z,9.46
2023-04-01T18:19:11.169Z,9.82
2023-04-01T18:22:23.523Z,10.25
2023-04-01T18:25:30.329Z,11.08
2023-04-01T18:28:42.782Z,11.17
2023-04-01T18:31:50.302Z,11.31
2023-04-01T18:34:59.474Z,11.39
2023-04-01T18:38:21.491Z,11.48
2023-04-01T18:41:54.512Z,11.48
2023-04-01T18:45:16.009Z,11.45
2023-04-01T18:48:37.431Z,11.40
2023-04-01T18:51:59.613Z,11.32
2023-04-01T18:55:06.358Z,11.46
2023-04-01T18:58:27.585Z,11.54
2023-04-01T19:01:39.877Z,11.54
2023-04-01T19:04:53.126Z,11.45
2023-04-01T19:07:58.526Z,11.44
2023-04-01T19:11:12.884Z,11.37
2023-04-01T19:14:29.137Z,11.35
2023-04-01T19:17:54.122Z,11.29
2023-04-01T19:21:09.154Z,11.25
2023-04-01T19:24:32.462Z,11.31
2023-04-01T19:27:40.379Z,11.35
2023-04-01T19:30:56.975Z,11.39
2023-04-01T19:34:06.272Z,11.35
2023-04-01T19:37:46.733Z,11.38
2023-04-01T19:40:57.736Z,11.37
2023-04-01T19:44:16.312Z,11.31
2023-04-01T19:47:41.794Z,11.25
2023-04-01T19:50:52.798Z,11.22
2023-04-01T19:54:32.936Z,11.25
2023-04-01T19:58:00.855Z,11.19
2023-04-01T20:01:06.024Z,11.11
2023-04-01T20:04:23.426Z,11.00
2023-04-01T20:07:34.805Z,10.97
2023-04-01T20:11:02.600Z,10.91
2023-04-01T20:14:17.887Z,10.95
2023-04-01T20:17:39.069Z,10.86
2023-04-01T20:20:42.947Z,10.86
2023-04-01T20:23:55.085Z,10.86
2023-04-01T20:27:25.872Z,10.84
2023-04-01T20:30:38.336Z,10.78
2023-04-01T20:33:59.512Z,10.76
2023-04-01T20:37:27.514Z,10.73
2023-04-01T20:40:51.790Z,10.69
2023-04-01T20:44:27.603Z,10.61
2023-04-01T20:47:52.018Z,10.57
2023-04-01T20:51:06.490Z,10.52
2023-04-01T20:54:28.338Z,10.54
2023-04-01T20:57:34.197Z,10.52
2023-04-01T21:00:56.429Z,10.47
2023-04-01T21:04:20.228Z,10.39
2023-04-01T21:07:49.660Z,10.36
2023-04-01T21:11:17.105Z,10.33
2023-04-01T21:15:00.686Z,10.32
2023-04-01T21:18:40.231Z,10.28
2023-04-01T21:22:01.543Z,10.26
2023-04-01T21:25:45.104Z,10.20
2023-04-01T21:29:08.039Z,10.14
2023-04-01T21:32:39.070Z,10.13
2023-04-01T21:36:03.415Z,10.02
2023-04-01T21:39:42.934Z,10.05
2023-04-01T21:43:20.547Z,10.01
2023-04-01T21:46:34.302Z,9.97
2023-04-01T21:50:14.720Z,9.95
2023-04-01T21:53:56.741Z,9.94
2023-04-01T21:57:26.748Z,9.97
2023-04-01T22:00:44.728Z,9.89
2023-04-01T22:03:53.806Z,9.84
2023-04-01T22:07:02.382Z,9.83
2023-04-01T22:10:36.444Z,9.81
2023-04-01T22:13:50.682Z,9.78
2023-04-01T22:17:04.757Z,9.73
2023-04-01T22:20:16.988Z,9.70
2023-04-01T22:23:27.841Z,9.69
2023-04-01T22:26:44.315Z,9.60
2023-04-01T22:29:53.109Z,9.64
2023-04-01T22:33:08.000Z,9.63
2023-04-01T22:36:11.290Z,9.63
2023-04-01T22:39:33.196Z,9.62
2023-04-01T22:42:38.952Z,9.54
2023-04-01T22:45:49.723Z,9.59
2023-04-01T22:48:59.855Z,9.63
2023-04-01T22:52:22.828Z,9.61
2023-04-01T22:55:35.202Z,9.60
2023-04-01T22:58:44.217Z,9.54
2023-04-01T23:02:06.127Z,9.53
2023-04-01T23:05:14.488Z,9.53
2023-04-01T23:08:32.396Z,9.55
2023-04-01T23:12:11.288Z,9.52
2023-04-01T23:15:15.640Z,9.56
2023-04-01T23:18:36.151Z,9.52
2023-04-01T23:21:46.436Z,9.50
2023-04-01T23:24:55.074Z,9.51
2023-04-01T23:28:16.232Z,9.51
2023-04-01T23:31:38.367Z,9.49
2023-04-01T23:34:41.357Z,9.49
2023-04-01T23:37:44.253Z,9.48
2023-04-01T23:40:51.085Z,9.45
2023-04-01T23:44:01.042Z,9.45
2023-04-01T23:47:05.040Z,9.49
2023-04-01T23:50:18.359Z,9.49
2023-04-01T23:53:25.998Z,9.48
2023-04-01T23:56:56.513Z,9.47
